Time;durP1;ratioP1;P1;durP2;ratioP2;P2;SDS_P1;SDS_P2;PMS_P1;PMS_P2;Temp;Humidity;BMP_temperature;BMP_pressure;BME280_temperature;BME280_humidity;BME280_pressure;Samples;Min_cycle;Max_cycle;Signal;HPM_P1;HPM_P2
2021/11/29 00:00:24;;;;;;;;;3.00;2.50;;;;;20.47;36.99;100639.38;5028818;28;46213;-75
2021/11/29 00:02:53;;;;;;;;;3.00;3.00;;;;;20.50;37.09;100640.84;5029907;28;45618;-76
2021/11/29 00:05:22;;;;;;;;;2.75;2.75;;;;;20.40;37.14;100628.66;5029950;27;45458;-76
2021/11/29 00:07:48;;;;;;;;;3.00;3.00;;;;;20.49;37.08;100650.59;5029619;28;45317;-75
2021/11/29 00:10:13;;;;;;;;;2.00;2.00;;;;;20.43;37.20;100629.34;5031401;28;46314;-76
2021/11/29 00:12:39;;;;;;;;;2.25;2.25;;;;;20.47;36.95;100644.66;5030455;27;45453;-75
2021/11/29 00:15:11;;;;;;;;;1.00;1.00;;;;;20.47;37.04;100642.03;5029897;28;45396;-76
2021/11/29 00:17:36;;;;;;;;;1.00;1.00;;;;;20.46;36.86;100645.66;5029825;28;45491;-76
2021/11/29 00:20:04;;;;;;;;;2.50;2.50;;;;;20.47;36.79;100646.47;5031339;28;45940;-74
2021/11/29 00:22:29;;;;;;;;;1.50;1.50;;;;;20.45;36.79;100654.59;5032664;28;45466;-76
2021/11/29 00:24:55;;;;;;;;;2.00;2.00;;;;;20.45;36.92;100651.13;5034931;28;45425;-76
2021/11/29 00:27:20;;;;;;;;;2.75;1.25;;;;;20.42;37.06;100648.81;5032899;28;45399;-76
2021/11/29 00:29:45;;;;;;;;;2.00;2.00;;;;;20.44;36.83;100652.13;5013436;28;48404;-75
2021/11/29 00:32:11;;;;;;;;;2.00;2.00;;;;;20.33;37.21;100642.75;5033127;27;45381;-75
2021/11/29 00:34:37;;;;;;;;;1.75;1.75;;;;;20.38;36.94;100657.09;5032992;28;45445;-76
2021/11/29 00:37:03;;;;;;;;;2.50;2.00;;;;;20.42;37.02;100656.75;5034632;28;45369;-76
2021/11/29 00:39:28;;;;;;;;;3.00;1.25;;;;;20.36;36.99;100660.91;5031291;28;47110;-75
2021/11/29 00:41:53;;;;;;;;;1.00;1.00;;;;;20.33;36.79;100655.97;5030330;28;45488;-76
2021/11/29 00:44:19;;;;;;;;;4.00;2.00;;;;;20.39;36.81;100665.84;5032683;27;45442;-76
2021/11/29 00:46:44;;;;;;;;;2.00;2.00;;;;;20.38;36.81;100669.47;5032842;27;45474;-76
2021/11/29 00:49:10;;;;;;;;;3.00;1.25;;;;;20.34;36.85;100668.19;5034932;28;46127;-75
2021/11/29 00:51:35;;;;;;;;;2.50;2.00;;;;;20.38;36.98;100675.59;5032185;28;45406;-75
2021/11/29 00:54:01;;;;;;;;;1.00;1.00;;;;;20.31;36.88;100657.97;5032503;27;45431;-75
2021/11/29 00:56:27;;;;;;;;;2.25;1.00;;;;;20.40;36.76;100678.09;5032658;28;45397;-76
2021/11/29 00:58:53;;;;;;;;;3.00;3.00;;;;;20.42;36.59;100691.09;5032395;28;47075;-75
2021/11/29 01:01:18;;;;;;;;;2.00;2.00;;;;;20.42;36.65;100686.66;5033831;28;45376;-75
2021/11/29 01:03:44;;;;;;;;;3.00;2.00;;;;;20.42;36.55;100694.59;5033280;28;45377;-76
2021/11/29 01:06:09;;;;;;;;;2.00;2.00;;;;;20.42;36.74;100699.88;5032033;28;45480;-75
2021/11/29 01:08:35;;;;;;;;;1.00;1.00;;;;;20.35;36.42;100683.06;5030975;28;45452;-76
2021/11/29 01:11:02;;;;;;;;;3.75;3.00;;;;;20.42;36.49;100697.22;5013648;28;45598;-75
2021/11/29 01:13:28;;;;;;;;;3.00;2.00;;;;;20.44;36.57;100703.16;5032504;28;45369;-76
2021/11/29 01:15:53;;;;;;;;;1.75;1.25;;;;;20.27;36.74;100679.44;5034511;28;45371;-76
2021/11/29 01:18:19;;;;;;;;;2.00;2.00;;;;;20.36;36.52;100695.25;5030911;28;45562;-75
2021/11/29 01:20:45;;;;;;;;;4.00;2.50;;;;;20.44;36.61;100721.66;5031549;27;45387;-75
2021/11/29 01:23:13;;;;;;;;;2.00;2.00;;;;;20.43;36.63;100713.91;5033091;27;45610;-75
2021/11/29 01:25:39;;;;;;;;;3.00;2.00;;;;;20.36;36.62;100705.81;5032244;28;45562;-75
2021/11/29 01:28:05;;;;;;;;;2.50;1.25;;;;;20.28;36.52;100701.41;5033977;28;46374;-75
2021/11/29 01:30:31;;;;;;;;;2.25;2.25;;;;;20.37;36.32;100715.41;5031472;28;45502;-75
2021/11/29 01:32:57;;;;;;;;;2.25;2.00;;;;;20.36;36.71;100716.41;5032132;28;45577;-76
2021/11/29 01:35:22;;;;;;;;;1.25;1.25;;;;;20.30;36.57;100707.34;5031478;28;45450;-75
2021/11/29 01:37:48;;;;;;;;;6.00;2.00;;;;;20.34;36.25;100721.03;5029738;27;46918;-76
2021/11/29 01:40:14;;;;;;;;;4.00;3.25;;;;;20.39;36.42;100735.38;5033662;28;45341;-75
2021/11/29 01:43:13;;;;;;;;;3.00;2.00;;;;;20.35;36.33;100731.41;5032336;28;45523;-76
2021/11/29 01:45:45;;;;;;;;;2.00;2.00;;;;;20.39;36.45;100739.84;5032085;28;45584;-75
2021/11/29 01:48:12;;;;;;;;;3.00;2.00;;;;;20.33;36.42;100738.69;5030551;27;46577;-76
2021/11/29 01:50:44;;;;;;;;;3.50;3.50;;;;;20.37;36.53;100752.41;5031545;27;45438;-76
2021/11/29 01:53:11;;;;;;;;;3.00;3.00;;;;;20.35;36.55;100749.91;5031892;27;45384;-76
2021/11/29 01:55:39;;;;;;;;;2.75;2.00;;;;;20.33;36.65;100754.56;5031639;28;45550;-76
2021/11/29 01:58:05;;;;;;;;;2.75;2.25;;;;;20.36;36.51;100756.88;5033131;28;47495;-76
2021/11/29 02:00:34;;;;;;;;;2.75;2.50;;;;;20.37;36.44;100762.97;5031525;27;45344;-75
2021/11/29 02:02:59;;;;;;;;;2.00;2.00;;;;;20.36;36.44;100771.88;5031518;27;45338;-76
2021/11/29 02:05:25;;;;;;;;;2.25;2.00;;;;;20.36;36.39;100771.88;5031115;28;45424;-75
2021/11/29 02:07:51;;;;;;;;;2.00;2.00;;;;;20.35;36.36;100772.91;5031827;28;46434;-76
2021/11/29 02:10:20;;;;;;;;;2.00;2.00;;;;;20.35;36.53;100778.19;5032845;28;45229;-75
2021/11/29 02:12:46;;;;;;;;;3.00;3.00;;;;;20.29;36.48;100769.13;5033723;28;45552;-76
2021/11/29 02:15:13;;;;;;;;;2.00;2.00;;;;;20.35;36.31;100778.19;5031514;28;45438;-75
2021/11/29 02:17:39;;;;;;;;;2.75;2.75;;;;;20.34;36.47;100779.16;5031308;28;46122;-76
2021/11/29 02:20:05;;;;;;;;;2.00;2.00;;;;;20.27;36.44;100768.47;5031096;28;45366;-76
2021/11/29 02:22:31;;;;;;;;;2.00;2.00;;;;;20.33;36.40;100798.66;5031427;27;45490;-76
2021/11/29 02:24:57;;;;;;;;;3.00;2.00;;;;;20.32;36.39;100789.91;5033559;28;45515;-75
2021/11/29 02:27:23;;;;;;;;;1.75;1.75;;;;;20.28;36.18;100780.66;5029981;28;45350;-76
2021/11/29 02:29:51;;;;;;;;;2.50;2.50;;;;;20.28;36.27;100778.84;5031383;28;45468;-76
2021/11/29 02:32:17;;;;;;;;;2.25;2.25;;;;;20.30;36.15;100786.59;5013404;28;45450;-75
2021/11/29 02:34:42;;;;;;;;;2.00;2.00;;;;;20.16;36.15;100767.00;5012076;28;45397;-75
2021/11/29 02:37:08;;;;;;;;;4.75;1.75;;;;;20.20;36.21;100764.84;5033439;28;46201;-76
2021/11/29 02:39:34;;;;;;;;;3.25;2.00;;;;;20.22;36.55;100776.06;5031167;28;45457;-76
2021/11/29 02:42:03;;;;;;;;;2.00;2.00;;;;;20.31;36.43;100793.53;5030097;28;45361;-76
2021/11/29 02:44:29;;;;;;;;;2.25;2.00;;;;;20.30;36.24;100799.81;5031242;28;45357;-76
2021/11/29 02:46:55;;;;;;;;;2.00;2.00;;;;;20.21;36.31;100785.81;5031167;27;46443;-76
2021/11/29 02:49:21;;;;;;;;;2.00;2.00;;;;;20.30;36.40;100797.16;5031957;27;45209;-76
2021/11/29 02:51:50;;;;;;;;;2.50;2.00;;;;;20.28;36.21;100791.22;5032384;28;45303;-76
2021/11/29 02:54:20;;;;;;;;;2.75;2.75;;;;;20.33;36.47;100803.94;5031062;27;45454;-76
2021/11/29 02:56:49;;;;;;;;;3.25;2.00;;;;;20.34;36.31;100810.88;5030835;28;47209;-76
2021/11/29 02:59:19;;;;;;;;;3.50;3.50;;;;;20.33;36.27;100812.69;5030797;28;45674;-75
2021/11/29 03:01:48;;;;;;;;;2.00;1.50;;;;;20.10;36.31;100781.69;5015527;28;45467;-76
2021/11/29 03:04:13;;;;;;;;;2.00;2.00;;;;;20.34;36.13;100817.00;5032702;28;45531;-75
2021/11/29 03:06:39;;;;;;;;;1.00;1.00;;;;;20.34;36.02;100814.34;5029729;28;45329;-76
2021/11/29 03:09:06;;;;;;;;;3.25;2.00;;;;;20.35;36.00;100820.47;5030713;27;45372;-76
2021/11/29 03:11:31;;;;;;;;;2.25;2.25;;;;;20.28;36.28;100813.19;5030968;27;45601;-76
2021/11/29 03:13:57;;;;;;;;;3.25;3.00;;;;;20.35;36.33;100823.91;5029758;27;45354;-75
2021/11/29 03:16:22;;;;;;;;;2.25;2.25;;;;;20.35;36.05;100829.19;5031199;28;45490;-75
2021/11/29 03:18:48;;;;;;;;;3.00;3.00;;;;;20.24;36.22;100817.19;5031617;28;45450;-75
2021/11/29 03:21:17;;;;;;;;;4.00;2.50;;;;;20.34;36.03;100829.38;5030815;28;45511;-75
2021/11/29 03:23:45;;;;;;;;;1.00;1.00;;;;;20.34;35.89;100827.56;5030822;27;45465;-76
2021/11/29 03:26:15;;;;;;;;;3.00;1.00;;;;;20.33;35.91;100831.19;5030583;28;47190;-76
2021/11/29 03:28:43;;;;;;;;;1.75;1.75;;;;;20.29;35.96;100824.59;5014712;28;45438;-76
2021/11/29 03:31:09;;;;;;;;;1.00;1.00;;;;;20.30;36.16;100836.81;5028272;28;45535;-75
2021/11/29 03:33:38;;;;;;;;;2.00;2.00;;;;;20.32;36.03;100840.13;5030562;28;47885;-76
2021/11/29 03:36:04;;;;;;;;;1.50;1.50;;;;;20.33;35.95;100843.56;5030251;28;46501;-75
2021/11/29 03:38:30;;;;;;;;;3.00;2.00;;;;;20.29;36.03;100840.44;5030354;28;45972;-76
2021/11/29 03:40:57;;;;;;;;;2.50;2.50;;;;;20.32;36.09;100852.50;5030528;27;45426;-76
2021/11/29 03:43:23;;;;;;;;;2.00;2.00;;;;;20.21;35.93;100837.81;5031230;27;45394;-76
2021/11/29 03:45:49;;;;;;;;;2.50;2.00;;;;;20.29;35.97;100862.41;5029683;28;46068;-76
2021/11/29 03:48:15;;;;;;;;;3.00;2.00;;;;;20.29;35.88;100857.13;5030020;28;45331;-75
2021/11/29 03:50:40;;;;;;;;;2.00;2.00;;;;;20.29;36.00;100857.13;5030229;28;45319;-75
2021/11/29 03:53:05;;;;;;;;;2.00;1.50;;;;;20.18;35.87;100850.38;5029813;28;45414;-75
2021/11/29 03:55:31;;;;;;;;;2.25;2.00;;;;;20.28;36.02;100858.13;5033282;27;45445;-75
2021/11/29 03:57:56;;;;;;;;;1.75;1.75;;;;;20.22;36.12;100855.34;5035467;28;45413;-76
2021/11/29 04:00:22;;;;;;;;;2.25;1.25;;;;;20.25;35.94;100863.72;5032881;28;45346;-75
2021/11/29 04:02:47;;;;;;;;;1.75;1.50;;;;;20.18;36.11;100857.47;5033053;27;45575;-75
2021/11/29 04:05:13;;;;;;;;;3.00;2.50;;;;;20.20;36.13;100865.22;5033072;28;45480;-76
2021/11/29 04:07:38;;;;;;;;;2.00;2.00;;;;;20.28;35.89;100876.63;5033147;28;45512;-76
2021/11/29 04:10:05;;;;;;;;;4.25;2.00;;;;;20.27;36.01;100874.94;5035334;28;45305;-76
2021/11/29 04:12:30;;;;;;;;;2.25;1.75;;;;;20.26;35.76;100877.78;5033169;28;45328;-76
2021/11/29 04:14:55;;;;;;;;;2.75;2.00;;;;;20.28;35.72;100881.06;5032157;28;46264;-76
2021/11/29 04:17:21;;;;;;;;;4.00;3.00;;;;;20.22;35.99;100879.13;5032908;28;45317;-75
2021/11/29 04:19:46;;;;;;;;;3.00;1.50;;;;;20.20;35.91;100873.16;5033103;28;45285;-76
2021/11/29 04:22:14;;;;;;;;;3.25;2.75;;;;;20.14;35.85;100864.91;5035297;28;45306;-75
2021/11/29 04:24:41;;;;;;;;;3.00;2.50;;;;;20.15;36.00;100874.47;5032675;28;45441;-76
2021/11/29 04:27:06;;;;;;;;;2.00;2.00;;;;;20.23;36.21;100889.50;5032702;27;45438;-75
2021/11/29 04:29:35;;;;;;;;;2.50;1.25;;;;;20.19;35.86;100880.28;5031464;27;45562;-75
2021/11/29 04:32:01;;;;;;;;;2.00;2.00;;;;;20.25;35.74;100892.78;5031817;27;45534;-75
2021/11/29 04:34:26;;;;;;;;;2.00;2.00;;;;;20.24;35.87;100896.44;5033001;28;46411;-75
2021/11/29 04:36:51;;;;;;;;;3.50;3.00;;;;;20.15;35.68;100885.06;5034835;28;45364;-76
2021/11/29 04:39:17;;;;;;;;;2.00;2.00;;;;;19.88;35.91;100833.38;5032766;28;45752;-76
2021/11/29 04:41:43;;;;;;;;;1.00;1.00;;;;;20.24;35.85;100892.97;5032730;27;45291;-76
2021/11/29 04:44:09;;;;;;;;;3.00;2.00;;;;;19.99;35.83;100853.31;5032190;27;46799;-75
2021/11/29 04:46:35;;;;;;;;;2.25;2.25;;;;;20.24;35.68;100898.25;5030540;27;45788;-75
2021/11/29 04:49:00;;;;;;;;;3.25;2.00;;;;;20.25;35.73;100902.53;5034920;28;45637;-75
2021/11/29 04:51:26;;;;;;;;;2.00;2.00;;;;;20.26;35.75;100906.84;5032674;28;45692;-75
2021/11/29 04:53:51;;;;;;;;;2.00;2.00;;;;;20.26;35.83;100910.31;5032291;27;47425;-75
2021/11/29 04:56:17;;;;;;;;;3.50;1.50;;;;;20.26;35.74;100907.66;5032583;28;45452;-75
2021/11/29 04:58:42;;;;;;;;;3.50;2.25;;;;;20.28;35.80;100912.78;5032401;28;45398;-75
2021/11/29 05:01:08;;;;;;;;;3.25;2.25;;;;;20.27;35.75;100919.06;5034886;28;45532;-76
2021/11/29 05:03:34;;;;;;;;;2.75;2.75;;;;;20.28;35.79;100918.88;5030772;28;46190;-76
2021/11/29 05:05:59;;;;;;;;;2.00;2.00;;;;;20.24;35.43;100922.03;5031415;28;45374;-76
2021/11/29 05:08:24;;;;;;;;;3.00;1.75;;;;;20.16;35.55;100910.47;5032382;28;45359;-75
2021/11/29 05:10:50;;;;;;;;;3.00;3.00;;;;;20.24;35.50;100936.06;5031345;28;45504;-75
2021/11/29 05:13:18;;;;;;;;;3.00;3.00;;;;;20.31;35.71;100943.31;5033308;27;45990;-75
2021/11/29 05:15:43;;;;;;;;;2.50;2.50;;;;;20.30;35.78;100947.78;5031789;28;45443;-75
2021/11/29 05:18:08;;;;;;;;;2.00;2.00;;;;;20.30;35.61;100950.41;5031980;28;45417;-76
2021/11/29 05:20:34;;;;;;;;;2.50;2.00;;;;;20.29;35.49;100956.72;5032024;27;45372;-75
2021/11/29 05:22:59;;;;;;;;;1.50;1.50;;;;;20.27;35.61;100958.69;5032026;28;46072;-76
2021/11/29 05:25:24;;;;;;;;;2.25;2.00;;;;;20.27;35.62;100962.13;5032774;28;45546;-76
2021/11/29 05:27:50;;;;;;;;;4.75;3.00;;;;;20.27;35.66;100975.34;5044695;28;45557;-76
2021/11/29 05:30:15;;;;;;;;;2.00;2.00;;;;;20.02;35.61;100935.69;5032058;28;45547;-76
2021/11/29 05:32:41;;;;;;;;;3.50;2.00;;;;;20.27;35.46;100980.63;5031901;27;45357;-76
2021/11/29 05:35:06;;;;;;;;;1.25;1.25;;;;;20.24;35.52;100973.06;5032197;28;45404;-76
2021/11/29 05:37:32;;;;;;;;;3.00;1.75;;;;;20.24;35.67;100981.00;5032154;28;45599;-76
2021/11/29 05:39:57;;;;;;;;;3.75;1.50;;;;;20.20;35.53;100982.28;5016258;28;45548;-76
2021/11/29 05:42:22;;;;;;;;;1.25;0.25;;;;;20.24;35.52;100986.28;5029937;27;46310;-75
2021/11/29 05:44:50;;;;;;;;;2.00;2.00;;;;;20.18;35.51;100979.81;5012104;28;45892;-75
2021/11/29 05:47:17;;;;;;;;;2.50;2.50;;;;;20.22;35.51;100995.34;5019451;27;45401;-75
2021/11/29 05:49:43;;;;;;;;;1.00;1.00;;;;;20.23;35.61;100994.34;5015371;28;45369;-75
2021/11/29 05:52:08;;;;;;;;;2.00;2.00;;;;;20.23;35.61;101003.09;5033860;27;45333;-76
2021/11/29 05:54:33;;;;;;;;;1.50;1.50;;;;;20.22;35.58;101003.28;5031699;27;45374;-75
2021/11/29 05:56:59;;;;;;;;;4.00;3.00;;;;;20.21;35.69;101001.63;5023232;28;45454;-75
2021/11/29 05:59:24;;;;;;;;;2.00;2.00;;;;;20.22;35.42;101011.22;5031859;28;45535;-75
2021/11/29 06:01:49;;;;;;;;;2.00;1.25;;;;;20.21;35.61;101015.66;5031844;27;45430;-76
2021/11/29 06:04:15;;;;;;;;;2.00;2.00;;;;;20.21;35.51;101020.94;5033125;27;45352;-74
2021/11/29 06:06:42;;;;;;;;;2.00;1.25;;;;;20.22;35.61;101021.78;5032350;28;45455;-75
2021/11/29 06:09:07;;;;;;;;;2.00;2.00;;;;;20.17;35.53;101014.31;5031659;28;45332;-76
2021/11/29 06:11:33;;;;;;;;;2.25;2.25;;;;;20.21;35.53;101025.41;5030975;28;46481;-76
2021/11/29 06:13:58;;;;;;;;;2.50;1.00;;;;;20.02;35.48;101001.72;5031458;28;47468;-75
2021/11/29 06:16:23;;;;;;;;;3.75;3.00;;;;;20.21;35.55;101041.25;5032387;28;45504;-75
2021/11/29 06:18:49;;;;;;;;;1.25;1.25;;;;;20.16;35.61;101039.94;5032715;28;45454;-75
2021/11/29 06:21:14;;;;;;;;;3.00;2.00;;;;;20.03;35.63;101021.88;5029442;27;47126;-76
2021/11/29 06:23:39;;;;;;;;;0.75;0.75;;;;;20.20;35.56;101052.78;5014074;28;45446;-76
2021/11/29 06:26:05;;;;;;;;;2.25;2.00;;;;;20.17;35.73;101060.06;5031261;28;45411;-74
2021/11/29 06:28:31;;;;;;;;;2.00;1.00;;;;;20.20;35.44;101060.72;5032270;28;45239;-75
2021/11/29 06:30:57;;;;;;;;;2.00;2.00;;;;;20.19;35.37;101070.47;5031536;28;46067;-76
2021/11/29 06:33:22;;;;;;;;;3.25;2.25;;;;;20.18;35.48;101069.66;5031023;28;45505;-75
2021/11/29 06:35:48;;;;;;;;;3.50;2.00;;;;;19.98;35.47;101036.56;5031510;28;45219;-77
2021/11/29 06:38:13;;;;;;;;;1.25;1.25;;;;;20.17;35.40;101070.63;5031654;28;45679;-76
2021/11/29 06:40:38;;;;;;;;;2.25;2.25;;;;;20.09;35.65;101061.84;5030829;28;45392;-78
2021/11/29 06:43:05;;;;;;;;;1.00;1.00;;;;;20.07;35.60;101073.38;5033283;28;45338;-80
2021/11/29 06:45:31;;;;;;;;;2.50;2.00;;;;;20.04;35.44;101068.41;5031492;28;45389;-76
2021/11/29 06:47:57;;;;;;;;;2.25;2.00;;;;;20.20;35.50;101084.50;5031179;28;45377;-75
2021/11/29 06:50:23;;;;;;;;;2.00;2.00;;;;;20.20;35.56;101087.97;5031184;28;45504;-77
2021/11/29 06:52:49;;;;;;;;;2.00;2.00;;;;;20.10;35.59;101074.88;5028476;28;45345;-76
2021/11/29 06:55:16;;;;;;;;;3.25;2.25;;;;;20.21;35.84;101100.22;5026127;28;45574;-74
2021/11/29 06:57:42;;;;;;;;;2.00;2.00;;;;;20.15;35.82;101092.91;5031190;28;45376;-74
2021/11/29 07:00:11;;;;;;;;;1.75;1.75;;;;;20.23;35.99;101110.59;5029454;27;45451;-75
2021/11/29 07:02:39;;;;;;;;;2.00;2.00;;;;;20.18;35.87;101109.28;5030101;28;45451;-74
2021/11/29 07:05:05;;;;;;;;;3.00;3.00;;;;;20.25;35.94;101113.91;5031058;28;45296;-76
2021/11/29 07:07:31;;;;;;;;;3.75;2.00;;;;;20.24;36.28;101121.03;5029920;27;45661;-75
2021/11/29 07:09:56;;;;;;;;;3.00;2.00;;;;;20.25;36.21;101121.81;5029398;28;45908;-75
2021/11/29 07:12:22;;;;;;;;;5.75;2.00;;;;;20.26;36.11;101129.63;5031008;28;45314;-75
2021/11/29 07:14:47;;;;;;;;;2.00;2.00;;;;;20.16;35.91;101113.91;5041661;27;45321;-76
2021/11/29 07:17:12;;;;;;;;;2.75;1.75;;;;;20.23;36.20;101127.28;5030884;28;45239;-76
2021/11/29 07:19:38;;;;;;;;;4.00;2.00;;;;;20.25;35.95;101132.41;5027925;28;47007;-78
2021/11/29 07:22:05;;;;;;;;;4.00;1.50;;;;;20.24;36.34;101142.16;5032053;27;45314;-75
2021/11/29 07:24:31;;;;;;;;;3.25;3.25;;;;;20.14;36.42;101133.53;5030016;27;45627;-76
2021/11/29 07:26:57;;;;;;;;;3.25;2.00;;;;;20.23;36.40;101148.41;5030440;27;45487;-76
2021/11/29 07:29:22;;;;;;;;;2.25;2.25;;;;;20.25;36.31;101153.53;5024421;28;47152;-77
2021/11/29 07:31:47;;;;;;;;;2.50;2.50;;;;;20.27;36.35;101154.22;5030959;28;45550;-79
2021/11/29 07:34:13;;;;;;;;;4.75;3.00;;;;;20.30;36.47;101159.16;5032971;28;45461;-80
2021/11/29 07:36:38;;;;;;;;;4.50;2.00;;;;;20.21;36.31;101146.94;5029248;28;45404;-80
2021/11/29 07:39:05;;;;;;;;;2.00;2.00;;;;;20.22;35.97;101154.69;5028617;28;45546;-79
2021/11/29 07:41:30;;;;;;;;;3.00;2.00;;;;;20.28;36.30;101166.44;5030310;27;45658;-79
2021/11/29 07:43:55;;;;;;;;;2.00;2.00;;;;;20.24;36.25;101163.31;5030346;27;45409;-79
2021/11/29 07:46:21;;;;;;;;;4.25;3.00;;;;;20.00;36.42;101122.56;5031595;27;45385;-79
2021/11/29 07:48:46;;;;;;;;;1.50;1.50;;;;;20.26;36.37;101165.78;5029987;28;47145;-80
2021/11/29 07:51:11;;;;;;;;;3.50;2.00;;;;;20.25;36.54;101162.28;5030259;28;45254;-79
2021/11/29 07:53:37;;;;;;;;;2.75;2.75;;;;;20.25;36.35;101164.09;5029938;28;45228;-79
2021/11/29 07:56:02;;;;;;;;;3.00;3.00;;;;;20.16;36.38;101164.09;5030326;28;45350;-79
2021/11/29 07:58:28;;;;;;;;;4.00;3.00;;;;;20.23;36.54;101180.13;5030493;27;45992;-79
2021/11/29 08:00:54;;;;;;;;;6.75;4.50;;;;;20.20;36.38;101183.09;5032191;28;45399;-79
2021/11/29 08:03:20;;;;;;;;;4.50;3.00;;;;;20.22;36.47;101189.03;5030099;27;45474;-80
2021/11/29 08:05:46;;;;;;;;;4.75;3.00;;;;;20.18;36.35;101183.25;5030025;27;45295;-80
2021/11/29 08:08:12;;;;;;;;;4.50;3.25;;;;;20.17;36.39;101188.69;5029588;28;45357;-79
2021/11/29 08:10:39;;;;;;;;;2.00;2.00;;;;;20.15;36.43;101186.22;5029948;28;45314;-78
2021/11/29 08:13:09;;;;;;;;;2.00;2.00;;;;;20.23;36.31;101209.19;5014962;27;45429;-79
2021/11/29 08:15:39;;;;;;;;;4.75;2.75;;;;;20.11;36.55;101191.94;5029842;28;45430;-79
2021/11/29 08:18:08;;;;;;;;;2.75;2.00;;;;;20.22;36.38;101212.00;5028180;27;46538;-79
2021/11/29 08:20:34;;;;;;;;;4.00;2.25;;;;;20.17;36.27;101213.28;5029658;27;45443;-80
2021/11/29 08:22:59;;;;;;;;;3.00;3.00;;;;;20.21;36.50;101226.19;5029553;27;45591;-79
2021/11/29 08:25:26;;;;;;;;;2.25;2.25;;;;;20.20;36.31;101228.00;5031166;27;45440;-79
2021/11/29 08:27:51;;;;;;;;;2.25;2.00;;;;;20.05;36.33;101206.59;5029455;28;46527;-79
2021/11/29 08:30:19;;;;;;;;;3.75;3.75;;;;;20.21;36.44;101231.47;5029422;27;45485;-79
2021/11/29 08:32:45;;;;;;;;;4.25;3.00;;;;;20.20;36.44;101235.09;5029726;28;45234;-78
2021/11/29 08:35:13;;;;;;;;;2.00;2.00;;;;;20.10;36.79;101220.16;5029418;27;45324;-79
2021/11/29 08:37:43;;;;;;;;;2.00;2.00;;;;;20.20;36.21;101233.28;5029743;28;45594;-79
2021/11/29 08:40:09;;;;;;;;;3.50;3.00;;;;;20.09;36.27;101217.69;5032177;28;45429;-79
2021/11/29 08:42:34;;;;;;;;;3.25;2.25;;;;;20.05;36.25;101219.81;5032565;27;45430;-77
2021/11/29 08:45:00;;;;;;;;;3.00;1.75;;;;;20.15;36.35;101235.56;5032585;27;45464;-79
2021/11/29 08:47:27;;;;;;;;;3.00;3.00;;;;;20.07;36.23;101228.41;5032627;28;45766;-79
2021/11/29 08:49:53;;;;;;;;;2.00;2.00;;;;;20.23;36.35;101253.28;5032483;28;45503;-79
2021/11/29 08:52:18;;;;;;;;;3.25;3.00;;;;;20.04;36.56;101234.81;5034082;28;45460;-80
2021/11/29 08:54:44;;;;;;;;;4.50;3.50;;;;;19.93;36.31;101220.06;5033104;28;45689;-78
2021/11/29 08:57:10;;;;;;;;;4.00;3.25;;;;;20.25;36.28;101270.63;5031196;27;45503;-79
2021/11/29 08:59:35;;;;;;;;;3.25;2.25;;;;;20.14;36.24;101261.16;5032335;27;45535;-78
2021/11/29 09:02:01;;;;;;;;;5.00;4.00;;;;;19.91;35.93;101218.56;5031678;28;45349;-79
2021/11/29 09:04:27;;;;;;;;;3.75;2.25;;;;;20.24;36.20;101276.09;5030775;28;45477;-78
2021/11/29 09:06:53;;;;;;;;;3.00;2.50;;;;;20.21;36.18;101271.09;5031948;28;46208;-78
2021/11/29 09:09:18;;;;;;;;;3.00;3.00;;;;;20.16;35.96;101255.72;5032327;28;45471;-79
2021/11/29 09:11:43;;;;;;;;;4.00;4.00;;;;;20.27;36.16;101271.28;5032477;28;45251;-78
2021/11/29 09:14:09;;;;;;;;;2.00;2.00;;;;;20.28;36.25;101267.69;5032349;27;45495;-79
2021/11/29 09:16:35;;;;;;;;;4.00;3.75;;;;;20.28;36.10;101272.97;5032431;28;46364;-78
2021/11/29 09:19:00;;;;;;;;;3.25;3.00;;;;;20.16;36.24;101266.31;5033692;28;45246;-79
2021/11/29 09:21:26;;;;;;;;;3.50;3.50;;;;;20.17;36.04;101268.78;5032358;28;45559;-78
2021/11/29 09:23:51;;;;;;;;;3.00;3.00;;;;;20.23;36.35;101272.59;5032137;27;45390;-79
2021/11/29 09:26:17;;;;;;;;;3.25;3.25;;;;;20.27;35.89;101286.34;5031939;28;46217;-79
2021/11/29 09:28:42;;;;;;;;;4.50;4.50;;;;;20.23;36.15;101279.69;5032317;28;45310;-78
2021/11/29 09:31:09;;;;;;;;;4.00;3.00;;;;;20.15;36.29;101270.75;5034524;28;45226;-78
2021/11/29 09:33:35;;;;;;;;;3.00;3.00;;;;;20.16;36.13;101283.00;5031750;28;45392;-78
2021/11/29 09:36:00;;;;;;;;;4.75;2.50;;;;;20.16;36.25;101288.28;5030238;28;46048;-78
2021/11/29 09:38:26;;;;;;;;;4.00;4.00;;;;;20.26;36.15;101308.44;5031892;28;45654;-78
2021/11/29 09:40:52;;;;;;;;;5.75;3.00;;;;;20.27;36.04;101312.75;5032221;27;45678;-79
2021/11/29 09:43:18;;;;;;;;;4.00;2.50;;;;;20.26;36.12;101309.28;5033530;27;45528;-79
2021/11/29 09:45:48;;;;;;;;;4.50;4.00;;;;;20.26;36.11;101317.22;5031191;28;45390;-78
2021/11/29 09:48:14;;;;;;;;;3.50;3.00;;;;;20.16;36.38;101305.94;5031399;28;45478;-79
2021/11/29 09:50:43;;;;;;;;;4.00;3.00;;;;;20.23;35.98;101314.88;5031321;28;45436;-79
2021/11/29 09:53:10;;;;;;;;;5.00;5.00;;;;;20.24;36.06;101326.28;5030461;27;45494;-79
2021/11/29 09:55:36;;;;;;;;;4.75;3.00;;;;;20.26;36.11;101338.34;5031535;27;48214;-79
2021/11/29 09:58:04;;;;;;;;;2.00;2.00;;;;;20.23;36.03;101329.91;5033793;28;45347;-78
2021/11/29 10:00:34;;;;;;;;;3.75;3.75;;;;;20.21;36.16;101330.06;5031791;28;45286;-79
2021/11/29 10:03:01;;;;;;;;;4.25;1.75;;;;;19.94;36.13;101290.41;5031185;28;45326;-80
2021/11/29 10:05:27;;;;;;;;;4.00;2.75;;;;;20.20;36.07;101328.41;5031509;27;46272;-79
2021/11/29 10:07:54;;;;;;;;;5.50;5.00;;;;;20.26;36.10;101333.06;5031620;28;45522;-79
2021/11/29 10:10:23;;;;;;;;;4.25;4.25;;;;;20.12;36.06;101309.84;5032817;27;45328;-78
2021/11/29 10:12:52;;;;;;;;;5.50;4.00;;;;;20.26;36.02;101332.22;5033594;28;45592;-79
2021/11/29 10:15:50;;;;;;;;;3.00;3.00;;;;;20.26;35.99;101340.16;5013709;28;46336;-79
2021/11/29 10:18:24;;;;;;;;;3.75;2.75;;;;;20.13;36.01;101314.16;5085739;27;45501;-78
2021/11/29 10:20:50;;;;;;;;;5.00;5.00;;;;;20.26;35.70;101341.00;5082654;27;45850;-79
2021/11/29 10:23:22;;;;;;;;;5.25;3.50;;;;;20.27;35.77;101333.91;5082830;27;45372;-79
2021/11/29 10:25:47;;;;;;;;;4.50;4.00;;;;;20.02;36.08;101299.38;5078530;27;46427;-79
2021/11/29 10:28:31;;;;;;;;;3.75;3.75;;;;;20.12;36.09;101321.25;5091006;27;45539;-79
2021/11/29 10:31:17;;;;;;;;;3.00;3.00;;;;;20.25;36.12;101346.41;5081022;27;45378;-79
2021/11/29 10:34:05;;;;;;;;;2.50;2.50;;;;;20.24;36.20;101350.91;5082828;27;45657;-78
2021/11/29 10:36:35;;;;;;;;;4.00;4.00;;;;;20.25;36.20;101352.53;5088498;27;46334;-80
2021/11/29 10:39:09;;;;;;;;;4.50;3.50;;;;;20.22;36.00;101350.19;5087942;27;45459;-80
2021/11/29 10:41:38;;;;;;;;;5.00;3.00;;;;;20.23;36.06;101341.31;5082428;27;45364;-78
2021/11/29 10:44:07;;;;;;;;;3.00;3.00;;;;;20.26;36.14;101343.63;5080652;27;45515;-79
2021/11/29 10:46:38;;;;;;;;;3.00;3.00;;;;;20.28;35.94;101340.84;5077304;27;45414;-78
2021/11/29 10:49:13;;;;;;;;;5.00;4.00;;;;;20.27;36.10;101337.34;5079566;27;45429;-79
2021/11/29 10:51:41;;;;;;;;;3.00;3.00;;;;;19.84;36.13;101279.94;5082653;27;45336;-79
2021/11/29 10:54:13;;;;;;;;;5.00;4.00;;;;;20.23;35.99;101338.66;5051167;27;45537;-79
2021/11/29 10:56:41;;;;;;;;;3.50;3.25;;;;;20.12;35.85;101323.91;5030679;28;46339;-78
2021/11/29 10:59:09;;;;;;;;;5.50;5.50;;;;;20.02;35.86;101307.28;5030939;27;45560;-79
2021/11/29 11:01:45;;;;;;;;;6.50;4.00;;;;;20.32;35.93;101359.84;5030944;28;45536;-79
2021/11/29 11:04:22;;;;;;;;;4.00;4.00;;;;;20.28;36.02;101351.41;5032146;28;45360;-79
2021/11/29 11:06:52;;;;;;;;;3.00;3.00;;;;;20.29;35.87;101345.97;5030031;28;45384;-79
2021/11/29 11:09:28;;;;;;;;;4.50;3.75;;;;;20.32;36.06;101350.13;5029196;28;45503;-78
2021/11/29 11:12:04;;;;;;;;;4.00;4.00;;;;;20.34;35.93;101347.31;5030831;28;45574;-79
2021/11/29 11:14:33;;;;;;;;;3.00;2.50;;;;;20.17;35.94;101321.63;5030790;28;45407;-79
2021/11/29 11:17:11;;;;;;;;;5.00;3.75;;;;;20.34;36.08;101348.16;5030308;27;45419;-79
2021/11/29 11:19:43;;;;;;;;;3.75;3.75;;;;;20.35;35.74;101354.25;5030290;27;45489;-79
2021/11/29 11:22:16;;;;;;;;;3.75;3.00;;;;;20.34;36.21;101355.25;5033000;28;45427;-79